createdAt,value
2024-02-02T00:00:17.616Z,25.03
2024-02-02T00:03:06.143Z,25.04
2024-02-02T00:05:34.760Z,25.04
2024-02-02T00:08:02.971Z,25.05
2024-02-02T00:10:31.502Z,25.06
2024-02-02T00:12:59.968Z,25.07
2024-02-02T00:15:28.618Z,25.08
2024-02-02T00:17:57.390Z,25.09
2024-02-02T00:20:25.903Z,25.10
2024-02-02T00:22:56.621Z,25.10
2024-02-02T00:25:25.474Z,25.11
2024-02-02T00:27:54.133Z,25.13
2024-02-02T00:30:22.777Z,25.14
2024-02-02T00:32:51.256Z,25.14
2024-02-02T00:35:19.713Z,25.15
2024-02-02T00:37:48.294Z,25.15
2024-02-02T00:40:19.944Z,25.15
2024-02-02T00:42:49.502Z,25.16
2024-02-02T00:45:17.914Z,25.17
2024-02-02T00:47:46.673Z,25.17
2024-02-02T00:50:15.081Z,25.17
2024-02-02T00:52:44.137Z,25.18
2024-02-02T00:55:12.797Z,25.18
2024-02-02T00:57:41.110Z,25.19
2024-02-02T01:00:12.036Z,25.19
2024-02-02T01:02:40.852Z,25.19
2024-02-02T01:05:12.554Z,25.18
2024-02-02T01:07:41.380Z,25.19
2024-02-02T01:10:13.828Z,25.18
2024-02-02T01:12:42.137Z,25.19
2024-02-02T01:15:10.617Z,25.19
2024-02-02T01:17:39.000Z,25.20
2024-02-02T01:20:08.285Z,25.20
2024-02-02T01:22:36.371Z,25.20
2024-02-02T01:25:04.963Z,25.21
2024-02-02T01:27:34.833Z,25.21
2024-02-02T01:30:04.288Z,25.21
2024-02-02T01:32:32.425Z,25.21
2024-02-02T01:35:00.604Z,25.21
2024-02-02T01:37:29.061Z,25.20
2024-02-02T01:39:57.678Z,25.21
2024-02-02T01:42:26.107Z,25.21
2024-02-02T01:44:54.288Z,25.21
2024-02-02T01:47:22.628Z,25.22
2024-02-02T01:49:50.988Z,25.23
2024-02-02T01:52:19.465Z,25.23
2024-02-02T01:54:47.726Z,25.24
2024-02-02T01:57:16.190Z,25.24
2024-02-02T01:59:44.688Z,25.24
2024-02-02T02:02:13.791Z,25.24
2024-02-02T02:04:42.498Z,25.25
2024-02-02T02:07:10.963Z,25.25
2024-02-02T02:09:39.317Z,25.25
2024-02-02T02:12:08.055Z,25.25
2024-02-02T02:14:36.545Z,25.24
2024-02-02T02:17:05.126Z,25.23
2024-02-02T02:29:03.188Z,25.16
2024-02-02T02:31:31.435Z,25.16
2024-02-02T02:33:59.948Z,25.17
2024-02-02T02:36:28.587Z,25.19
2024-02-02T02:38:57.147Z,25.19
2024-02-02T02:41:26.121Z,25.20
2024-02-02T02:43:54.189Z,25.22
2024-02-02T02:46:22.406Z,25.23
2024-02-02T02:48:51.339Z,25.25
2024-02-02T02:51:19.932Z,25.25
2024-02-02T02:53:48.240Z,25.26
2024-02-02T02:56:16.640Z,25.26
2024-02-02T02:58:45.236Z,25.27
2024-02-02T03:01:13.747Z,25.28
2024-02-02T03:03:41.930Z,25.28
2024-02-02T03:06:10.452Z,25.30
2024-02-02T03:08:38.943Z,25.30
2024-02-02T03:11:07.129Z,25.31
2024-02-02T03:13:35.614Z,25.31
2024-02-02T03:16:04.421Z,25.33
2024-02-02T03:18:32.762Z,25.33
2024-02-02T03:21:01.203Z,25.34
2024-02-02T03:23:30.230Z,25.34
2024-02-02T03:25:58.388Z,25.35
2024-02-02T03:28:26.441Z,25.35
2024-02-02T03:30:54.787Z,25.36
2024-02-02T03:33:23.322Z,25.35
2024-02-02T03:35:51.743Z,25.37
2024-02-02T03:38:19.949Z,25.37
2024-02-02T03:40:48.220Z,25.37
2024-02-02T03:43:16.432Z,25.38
2024-02-02T03:45:44.759Z,25.38
2024-02-02T03:48:13.349Z,25.39
2024-02-02T03:50:41.802Z,25.38
2024-02-02T03:53:10.588Z,25.38
2024-02-02T03:55:39.048Z,25.39
2024-02-02T03:58:07.111Z,25.40
2024-02-02T04:00:35.627Z,25.40
2024-02-02T04:03:04.784Z,25.39
2024-02-02T04:05:33.244Z,25.39
2024-02-02T04:08:01.752Z,25.40
2024-02-02T04:10:30.249Z,25.40
2024-02-02T04:12:59.161Z,25.41
2024-02-02T04:15:28.623Z,25.42
2024-02-02T04:17:57.488Z,25.42
2024-02-02T04:20:25.978Z,25.43
2024-02-02T04:22:54.334Z,25.43
2024-02-02T04:25:23.057Z,25.44
2024-02-02T04:27:51.536Z,25.44
2024-02-02T04:30:20.276Z,25.44
2024-02-02T04:32:48.803Z,25.44
2024-02-02T04:35:17.143Z,25.45
2024-02-02T04:37:45.477Z,25.45
2024-02-02T04:40:13.731Z,25.45
2024-02-02T04:42:42.207Z,25.45
2024-02-02T04:45:10.761Z,25.46
2024-02-02T04:47:39.228Z,25.46
2024-02-02T04:50:08.064Z,25.46
2024-02-02T04:52:36.392Z,25.47
2024-02-02T04:55:05.959Z,25.46
2024-02-02T04:57:34.227Z,25.47
2024-02-02T05:00:02.723Z,25.46
2024-02-02T05:02:32.947Z,25.46
2024-02-02T05:05:01.318Z,25.46
2024-02-02T05:07:29.693Z,25.47
2024-02-02T05:09:58.151Z,25.48
2024-02-02T05:12:26.193Z,25.48
2024-02-02T05:14:55.193Z,25.49
2024-02-02T05:17:23.452Z,25.49
2024-02-02T05:19:51.968Z,25.49
2024-02-02T05:22:20.318Z,25.50
2024-02-02T05:24:49.583Z,25.51
2024-02-02T05:27:17.906Z,25.52
2024-02-02T05:29:46.354Z,25.53
2024-02-02T05:32:14.496Z,25.55
2024-02-02T05:34:43.408Z,25.55
2024-02-02T05:37:11.947Z,25.56
2024-02-02T05:39:40.346Z,25.56
2024-02-02T05:42:08.981Z,25.57
2024-02-02T05:44:38.239Z,25.57
2024-02-02T05:47:06.566Z,25.58
2024-02-02T05:49:35.015Z,25.58
2024-02-02T05:52:03.436Z,25.60
2024-02-02T05:54:32.938Z,25.62
2024-02-02T05:57:01.360Z,25.64
2024-02-02T05:59:29.587Z,25.65
2024-02-02T06:01:57.904Z,25.65
2024-02-02T06:04:26.420Z,25.66
2024-02-02T06:06:54.892Z,25.67
2024-02-02T06:09:23.665Z,25.68
2024-02-02T06:11:52.048Z,25.63
2024-02-02T06:14:20.176Z,25.57
2024-02-02T06:16:49.577Z,25.51
2024-02-02T06:19:18.254Z,25.44
2024-02-02T06:21:46.629Z,25.36
2024-02-02T06:24:15.344Z,25.30
2024-02-02T06:26:44.571Z,25.23
2024-02-02T06:29:12.929Z,25.18
2024-02-02T06:31:41.301Z,25.12
2024-02-02T06:34:12.617Z,25.06
2024-02-02T06:36:42.315Z,25.00
2024-02-02T06:39:10.791Z,24.96
2024-02-02T06:41:39.177Z,24.93
2024-02-02T06:44:07.460Z,24.90
2024-02-02T06:46:35.877Z,24.90
2024-02-02T06:49:04.423Z,24.87
2024-02-02T06:51:33.095Z,24.83
2024-02-02T06:54:01.400Z,24.80
2024-02-02T06:56:46.416Z,24.77
2024-02-02T06:59:14.857Z,24.73
2024-02-02T07:01:42.948Z,24.70
2024-02-02T07:04:15.163Z,24.68
2024-02-02T07:06:43.694Z,24.68
2024-02-02T07:09:24.307Z,24.67
2024-02-02T07:11:57.816Z,24.66
2024-02-02T07:14:34.804Z,24.68
2024-02-02T07:17:03.749Z,24.74
2024-02-02T07:19:38.955Z,24.82
2024-02-02T07:22:39.884Z,24.92
2024-02-02T07:25:17.200Z,25.03
2024-02-02T07:27:48.928Z,25.12
2024-02-02T07:30:32.605Z,25.22
2024-02-02T07:33:01.908Z,25.33
2024-02-02T07:35:34.612Z,25.43
2024-02-02T07:38:06.537Z,25.50
2024-02-02T07:40:49.936Z,25.58
2024-02-02T07:43:18.396Z,25.67
2024-02-02T07:45:46.658Z,25.74
2024-02-02T07:48:14.891Z,25.79
2024-02-02T07:50:43.221Z,25.84
2024-02-02T07:53:11.704Z,25.89
2024-02-02T07:55:40.712Z,25.94
2024-02-02T07:58:09.281Z,25.99
2024-02-02T08:00:37.819Z,26.02
2024-02-02T08:03:10.554Z,26.03
2024-02-02T08:05:40.773Z,26.04
2024-02-02T08:08:09.539Z,26.05
2024-02-02T08:10:43.261Z,26.06
2024-02-02T08:13:13.844Z,26.08
2024-02-02T08:15:42.523Z,26.09
2024-02-02T08:18:12.180Z,26.10
2024-02-02T08:20:40.766Z,26.13
2024-02-02T08:23:09.057Z,26.15
2024-02-02T08:25:37.233Z,26.15
2024-02-02T08:28:06.280Z,26.17
2024-02-02T08:30:34.476Z,26.19
2024-02-02T08:33:03.053Z,26.20
2024-02-02T08:35:31.462Z,26.21
2024-02-02T08:38:01.381Z,26.22
2024-02-02T08:40:41.040Z,26.23
2024-02-02T08:43:14.103Z,26.24
2024-02-02T08:45:42.288Z,26.26
2024-02-02T08:48:21.044Z,26.27
2024-02-02T08:50:49.663Z,26.28
2024-02-02T08:53:18.261Z,26.29
2024-02-02T08:55:50.822Z,26.31
2024-02-02T08:58:28.570Z,26.29
2024-02-02T09:00:56.798Z,26.27
2024-02-02T09:03:48.494Z,26.26
2024-02-02T09:06:44.576Z,26.19
2024-02-02T09:09:13.598Z,26.03
2024-02-02T09:11:42.332Z,25.92
2024-02-02T09:14:15.684Z,25.84
2024-02-02T09:16:45.777Z,25.76
2024-02-02T09:19:28.046Z,25.69
2024-02-02T09:21:59.006Z,25.61
2024-02-02T09:24:43.283Z,25.54
2024-02-02T09:27:33.401Z,25.47
2024-02-02T09:30:02.308Z,25.39
2024-02-02T09:32:30.916Z,25.35
2024-02-02T09:35:01.255Z,25.31
2024-02-02T09:37:51.193Z,25.27
2024-02-02T09:40:40.549Z,25.23
2024-02-02T09:43:14.091Z,25.19
2024-02-02T09:45:55.042Z,25.17
2024-02-02T09:48:31.736Z,25.13
2024-02-02T09:51:18.747Z,25.11
2024-02-02T09:53:52.814Z,25.08
2024-02-02T09:56:27.947Z,25.04
2024-02-02T09:59:23.487Z,25.02
2024-02-02T10:02:04.033Z,24.99
2024-02-02T10:05:01.322Z,24.95
2024-02-02T10:07:47.974Z,24.94
2024-02-02T10:10:22.027Z,24.93
2024-02-02T10:13:17.620Z,24.93
2024-02-02T10:16:08.843Z,24.93
2024-02-02T10:18:50.632Z,24.93
2024-02-02T10:21:29.611Z,24.93
2024-02-02T10:24:18.828Z,24.92
2024-02-02T10:27:25.932Z,24.93
2024-02-02T10:30:29.041Z,24.93
2024-02-02T10:33:21.629Z,24.93
2024-02-02T10:35:56.394Z,24.95
2024-02-02T10:38:59.685Z,24.97
2024-02-02T10:41:46.491Z,24.99
2024-02-02T10:44:50.727Z,25.01
2024-02-02T10:47:46.101Z,25.04
2024-02-02T10:50:50.636Z,25.05
2024-02-02T10:53:24.969Z,25.00
2024-02-02T10:56:02.181Z,25.04
2024-02-02T10:58:48.762Z,25.12
2024-02-02T11:01:33.190Z,25.23
2024-02-02T11:04:23.198Z,25.34
2024-02-02T11:07:07.472Z,25.45
2024-02-02T11:09:46.858Z,25.54
2024-02-02T11:12:24.729Z,25.64
2024-02-02T11:15:37.567Z,25.72
2024-02-02T11:18:09.542Z,25.79
2024-02-02T11:20:52.961Z,25.84
2024-02-02T11:23:30.270Z,25.88
2024-02-02T11:26:01.203Z,25.90
2024-02-02T11:28:32.182Z,25.92
2024-02-02T11:31:03.467Z,25.93
2024-02-02T11:33:47.725Z,25.94
2024-02-02T11:40:11.926Z,26.02
2024-02-02T11:42:40.850Z,26.04
2024-02-02T11:45:13.511Z,26.06
2024-02-02T11:47:54.096Z,26.07
2024-02-02T11:50:22.739Z,26.08
2024-02-02T11:52:59.221Z,26.12
2024-02-02T11:55:33.173Z,26.18
2024-02-02T11:58:04.585Z,26.22
2024-02-02T12:00:35.543Z,26.32
2024-02-02T12:03:13.159Z,26.44
2024-02-02T12:06:15.084Z,26.55
2024-02-02T12:08:58.456Z,26.67
2024-02-02T12:11:36.725Z,26.79
2024-02-02T12:14:29.423Z,26.89
2024-02-02T12:16:58.582Z,26.97
2024-02-02T12:19:28.131Z,26.93
2024-02-02T12:21:56.640Z,26.88
2024-02-02T12:24:25.180Z,26.83
2024-02-02T12:26:53.598Z,26.78
2024-02-02T12:29:22.712Z,26.76
2024-02-02T12:31:51.018Z,26.77
2024-02-02T12:34:19.259Z,26.72
2024-02-02T12:36:47.802Z,26.67
2024-02-02T12:39:16.346Z,26.62
2024-02-02T12:41:44.806Z,26.58
2024-02-02T12:44:12.896Z,26.53
2024-02-02T12:46:48.704Z,26.51
2024-02-02T12:49:17.234Z,26.47
2024-02-02T12:51:46.040Z,26.44
2024-02-02T12:54:14.666Z,26.40
2024-02-02T12:56:43.073Z,26.35
2024-02-02T12:59:19.843Z,26.30
2024-02-02T13:01:51.094Z,26.27
2024-02-02T13:04:19.537Z,26.23
2024-02-02T13:06:48.084Z,26.20
2024-02-02T13:09:33.350Z,26.18
2024-02-02T13:12:02.138Z,26.16
2024-02-02T13:14:32.761Z,26.14
2024-02-02T13:17:12.493Z,26.18
2024-02-02T13:19:47.225Z,26.28
2024-02-02T13:22:22.733Z,26.38
2024-02-02T13:24:55.005Z,26.39
2024-02-02T13:27:26.838Z,26.46
2024-02-02T13:30:03.832Z,26.54
2024-02-02T13:32:35.008Z,26.61
2024-02-02T13:35:09.856Z,26.60
2024-02-02T13:37:44.595Z,26.61
2024-02-02T13:40:14.704Z,26.59
2024-02-02T13:42:43.589Z,26.56
2024-02-02T13:45:16.641Z,26.54
2024-02-02T13:47:57.894Z,26.52
2024-02-02T13:50:41.818Z,26.49
2024-02-02T13:53:10.586Z,26.46
2024-02-02T13:55:39.340Z,26.44
2024-02-02T13:58:08.009Z,26.42
2024-02-02T14:00:36.514Z,26.40
2024-02-02T14:03:12.733Z,26.38
2024-02-02T14:05:42.799Z,26.35
2024-02-02T14:08:11.038Z,26.32
2024-02-02T14:10:46.610Z,26.29
2024-02-02T14:13:20.373Z,26.26
2024-02-02T14:15:50.402Z,26.24
2024-02-02T14:18:22.214Z,26.22
2024-02-02T14:20:50.922Z,26.19
2024-02-02T14:23:19.073Z,26.17
2024-02-02T14:25:47.426Z,26.16
2024-02-02T14:28:19.927Z,26.15
2024-02-02T14:30:48.786Z,26.14
2024-02-02T14:33:24.927Z,26.12
2024-02-02T14:35:55.321Z,26.11
2024-02-02T14:38:23.865Z,26.11
2024-02-02T14:50:21.988Z,26.02
2024-02-02T14:52:50.144Z,26.01
2024-02-02T14:55:18.171Z,26.02
2024-02-02T14:57:47.402Z,26.02
2024-02-02T15:00:31.134Z,26.03
2024-02-02T15:03:00.249Z,26.04
2024-02-02T15:05:29.059Z,26.04
2024-02-02T15:07:58.416Z,26.05
2024-02-02T15:10:26.799Z,26.05
2024-02-02T15:12:55.125Z,26.05
2024-02-02T15:15:23.931Z,26.06
2024-02-02T15:17:52.377Z,26.05
2024-02-02T15:20:20.796Z,26.05
2024-02-02T15:22:49.192Z,26.04
2024-02-02T15:25:17.564Z,26.03
2024-02-02T15:27:45.973Z,26.04
2024-02-02T15:30:14.864Z,26.03
2024-02-02T15:32:45.299Z,26.03
2024-02-02T15:35:16.952Z,26.04
2024-02-02T15:37:45.270Z,26.03
2024-02-02T15:40:15.261Z,26.04
2024-02-02T15:42:43.663Z,26.03
2024-02-02T15:47:40.418Z,26.03
2024-02-02T15:50:10.856Z,26.03
2024-02-02T15:52:39.993Z,26.03
2024-02-02T15:55:09.063Z,26.03
2024-02-02T15:57:37.316Z,26.03
2024-02-02T16:00:11.264Z,26.04
2024-02-02T16:02:40.062Z,26.04
2024-02-02T16:05:08.741Z,26.03
2024-02-02T16:07:38.469Z,26.03
2024-02-02T16:10:08.619Z,26.03
2024-02-02T16:12:39.736Z,26.03
2024-02-02T16:15:12.310Z,26.04
2024-02-02T16:17:41.276Z,26.04
2024-02-02T16:20:12.916Z,26.04
2024-02-02T16:22:42.772Z,26.04
2024-02-02T16:25:13.667Z,26.04
2024-02-02T16:27:42.111Z,26.05
2024-02-02T16:30:12.217Z,26.04
2024-02-02T16:32:40.734Z,26.04
2024-02-02T16:35:09.731Z,26.04
2024-02-02T16:37:39.889Z,26.04
2024-02-02T16:40:09.704Z,26.04
2024-02-02T16:42:40.275Z,26.04
2024-02-02T16:45:09.409Z,26.04
2024-02-02T16:47:37.534Z,26.04
2024-02-02T16:50:06.831Z,26.04
2024-02-02T16:52:35.169Z,26.04
2024-02-02T16:55:05.112Z,26.05
2024-02-02T16:57:33.245Z,26.05
2024-02-02T17:00:04.167Z,26.05
2024-02-02T17:02:32.439Z,26.05
2024-02-02T17:05:00.848Z,26.05
2024-02-02T17:07:30.054Z,26.04
2024-02-02T17:09:58.533Z,26.05
2024-02-02T17:12:27.150Z,26.05
2024-02-02T17:14:55.573Z,26.04
2024-02-02T17:17:23.928Z,26.05
2024-02-02T17:19:52.310Z,26.06
2024-02-02T17:22:20.481Z,26.06
2024-02-02T17:24:48.671Z,26.06
2024-02-02T17:27:17.113Z,26.06
2024-02-02T17:29:45.293Z,26.06
2024-02-02T17:32:17.238Z,26.06
2024-02-02T17:34:49.416Z,26.08
2024-02-02T17:37:18.125Z,26.06
2024-02-02T17:39:46.778Z,26.06
2024-02-02T17:42:15.306Z,26.06
2024-02-02T17:44:44.837Z,26.05
2024-02-02T17:47:13.364Z,26.05
2024-02-02T17:49:45.967Z,26.04
2024-02-02T17:52:17.792Z,26.03
2024-02-02T17:54:46.399Z,26.03
2024-02-02T17:57:15.690Z,26.03
2024-02-02T17:59:44.152Z,26.03
2024-02-02T18:02:12.658Z,26.03
2024-02-02T18:04:40.855Z,26.04
2024-02-02T18:07:11.571Z,26.05
2024-02-02T18:09:41.833Z,26.05
2024-02-02T18:12:13.485Z,26.05
2024-02-02T18:14:42.118Z,26.05
2024-02-02T18:17:15.431Z,26.05
2024-02-02T18:19:44.354Z,26.05
2024-02-02T18:22:12.612Z,26.05
2024-02-02T18:24:41.276Z,26.05
2024-02-02T18:27:09.807Z,26.05
2024-02-02T18:29:37.875Z,26.06
2024-02-02T18:32:07.979Z,26.06
2024-02-02T18:34:39.410Z,26.07
2024-02-02T18:37:09.084Z,26.08
2024-02-02T18:39:37.522Z,26.07
2024-02-02T18:42:08.340Z,26.07
2024-02-02T18:44:36.704Z,26.06
2024-02-02T18:47:05.456Z,26.05
2024-02-02T18:49:33.992Z,26.05
2024-02-02T18:52:02.263Z,26.07
2024-02-02T18:54:30.359Z,26.07
2024-02-02T18:57:01.830Z,26.07
2024-02-02T18:59:30.048Z,26.07
2024-02-02T19:01:58.609Z,26.06
2024-02-02T19:04:26.814Z,26.07
2024-02-02T19:06:55.424Z,26.07
2024-02-02T19:09:24.361Z,26.08
2024-02-02T19:11:52.918Z,26.08
2024-02-02T19:14:22.979Z,26.08
2024-02-02T19:16:51.440Z,26.09
2024-02-02T19:19:22.782Z,26.08
2024-02-02T19:21:52.604Z,26.09
2024-02-02T19:24:20.960Z,26.09
2024-02-02T19:26:52.393Z,26.08
2024-02-02T19:29:22.064Z,26.09
2024-02-02T19:31:50.106Z,26.09
2024-02-02T19:34:20.392Z,26.09
2024-02-02T19:36:48.806Z,26.09
2024-02-02T19:39:17.237Z,26.09
2024-02-02T19:41:45.536Z,26.10
2024-02-02T19:44:14.119Z,26.10
2024-02-02T19:46:42.666Z,26.11
2024-02-02T19:49:11.903Z,26.12
2024-02-02T19:51:40.519Z,26.12
2024-02-02T19:54:08.983Z,26.12
2024-02-02T19:56:37.494Z,26.12
2024-02-02T19:59:06.036Z,26.12
2024-02-02T20:01:35.562Z,26.11
2024-02-02T20:04:04.062Z,26.10
2024-02-02T20:06:32.667Z,26.10
2024-02-02T20:09:01.010Z,26.12
2024-02-02T20:11:30.688Z,26.12
2024-02-02T20:13:59.084Z,26.11
2024-02-02T20:16:27.470Z,26.12
2024-02-02T20:18:56.015Z,26.12
2024-02-02T20:21:27.526Z,26.13
2024-02-02T20:23:56.697Z,26.12
2024-02-02T20:26:25.055Z,26.13
2024-02-02T20:28:54.174Z,26.12
2024-02-02T20:31:22.556Z,26.13
2024-02-02T20:33:56.697Z,26.13
2024-02-02T20:36:28.681Z,26.13
2024-02-02T20:38:57.194Z,26.14
2024-02-02T20:41:28.352Z,26.14
2024-02-02T20:43:58.576Z,26.15
2024-02-02T20:46:27.524Z,26.15
2024-02-02T20:48:55.928Z,26.14
2024-02-02T20:51:24.325Z,26.14
2024-02-02T20:53:52.786Z,26.14
2024-02-02T20:56:21.342Z,26.14
2024-02-02T20:58:49.445Z,26.14
2024-02-02T21:01:17.964Z,26.14
2024-02-02T21:03:46.269Z,26.14
2024-02-02T21:06:14.678Z,26.14
2024-02-02T21:08:44.587Z,26.14
2024-02-02T21:11:12.833Z,26.14
2024-02-02T21:13:41.298Z,26.13
2024-02-02T21:16:09.713Z,26.13
2024-02-02T21:18:38.478Z,26.15
2024-02-02T21:21:07.615Z,26.14
2024-02-02T21:23:36.066Z,26.14
2024-02-02T21:26:04.853Z,26.14
2024-02-02T21:28:33.048Z,26.14
2024-02-02T21:31:01.690Z,26.15
2024-02-02T21:33:30.397Z,26.15
2024-02-02T21:36:03.628Z,26.15
2024-02-02T21:38:32.483Z,26.16
2024-02-02T21:41:03.075Z,26.16
2024-02-02T21:43:31.304Z,26.16
2024-02-02T21:45:59.724Z,26.16
2024-02-02T21:48:28.016Z,26.17
2024-02-02T21:50:56.357Z,26.16
2024-02-02T21:53:24.624Z,26.16
2024-02-02T21:55:53.578Z,26.16
2024-02-02T21:58:22.160Z,26.15
2024-02-02T22:00:50.340Z,26.13
2024-02-02T22:03:18.765Z,26.11
2024-02-02T22:05:47.250Z,26.09
2024-02-02T22:08:15.894Z,26.07
2024-02-02T22:10:43.952Z,26.06
2024-02-02T22:13:12.454Z,26.02
2024-02-02T22:15:41.008Z,25.99
2024-02-02T22:18:11.418Z,25.97
2024-02-02T22:20:40.551Z,25.93
2024-02-02T22:23:08.620Z,25.90
2024-02-02T22:25:36.909Z,25.88
2024-02-02T22:30:35.321Z,25.85
2024-02-02T22:33:03.990Z,25.83
2024-02-02T22:35:32.565Z,25.81
2024-02-02T22:38:00.849Z,25.80
2024-02-02T22:40:29.280Z,25.80
2024-02-02T22:42:57.463Z,25.81
2024-02-02T22:45:26.002Z,25.77
2024-02-02T22:47:54.503Z,25.79
2024-02-02T22:50:22.960Z,25.79
2024-02-02T22:52:51.387Z,25.79
2024-02-02T22:55:20.279Z,25.82
2024-02-02T22:57:48.640Z,25.82
2024-02-02T23:00:20.884Z,25.83
2024-02-02T23:02:49.320Z,25.82
2024-02-02T23:05:17.805Z,25.81
2024-02-02T23:07:46.049Z,25.78
2024-02-02T23:10:14.433Z,25.76
2024-02-02T23:12:42.617Z,25.76
2024-02-02T23:15:11.465Z,25.76
2024-02-02T23:17:39.843Z,25.75
2024-02-02T23:20:09.925Z,25.75
2024-02-02T23:22:38.795Z,25.75
2024-02-02T23:25:07.879Z,25.75
2024-02-02T23:27:37.929Z,25.77
2024-02-02T23:30:07.778Z,25.75
2024-02-02T23:32:36.552Z,25.76
2024-02-02T23:35:05.630Z,25.75
2024-02-02T23:37:34.788Z,25.75
2024-02-02T23:40:04.741Z,25.75
2024-02-02T23:42:33.148Z,25.76
2024-02-02T23:45:01.565Z,25.77
2024-02-02T23:47:30.033Z,25.76
2024-02-02T23:49:58.506Z,25.76
2024-02-02T23:52:26.935Z,25.76
2024-02-02T23:54:55.664Z,25.76
2024-02-02T23:57:25.887Z,25.76
2024-02-02T23:59:54.418Z,25.76
